sensor_id;sensor_type;location;lat;lon;timestamp;P1;durP1;ratioP1;P2;durP2;ratioP2
24559;SDS011;12727;49.934;8.656;2023-07-28T00:01:30;6.43;;;3.65;;
24559;SDS011;12727;49.934;8.656;2023-07-28T00:03:55;6.68;;;3.83;;
24559;SDS011;12727;49.934;8.656;2023-07-28T00:06:22;6.90;;;4.03;;
24559;SDS011;12727;49.934;8.656;2023-07-28T00:08:48;6.53;;;3.97;;
24559;SDS011;12727;49.934;8.656;2023-07-28T00:11:14;7.63;;;4.03;;
24559;SDS011;12727;49.934;8.656;2023-07-28T00:13:41;5.00;;;4.32;;
24559;SDS011;12727;49.934;8.656;2023-07-28T00:16:07;5.45;;;4.15;;
24559;SDS011;12727;49.934;8.656;2023-07-28T00:18:34;5.40;;;4.10;;
24559;SDS011;12727;49.934;8.656;2023-07-28T00:21:00;4.93;;;4.22;;
24559;SDS011;12727;49.934;8.656;2023-07-28T00:23:27;5.85;;;4.57;;
24559;SDS011;12727;49.934;8.656;2023-07-28T00:25:53;5.18;;;4.00;;
24559;SDS011;12727;49.934;8.656;2023-07-28T00:28:19;4.65;;;3.83;;
24559;SDS011;12727;49.934;8.656;2023-07-28T00:30:44;6.00;;;3.67;;
24559;SDS011;12727;49.934;8.656;2023-07-28T00:33:14;6.18;;;3.80;;
24559;SDS011;12727;49.934;8.656;2023-07-28T00:35:40;6.63;;;3.60;;
24559;SDS011;12727;49.934;8.656;2023-07-28T00:38:06;4.35;;;3.60;;
24559;SDS011;12727;49.934;8.656;2023-07-28T00:40:31;6.38;;;4.32;;
24559;SDS011;12727;49.934;8.656;2023-07-28T00:42:57;5.47;;;4.03;;
24559;SDS011;12727;49.934;8.656;2023-07-28T00:45:22;4.97;;;3.70;;
24559;SDS011;12727;49.934;8.656;2023-07-28T00:47:48;4.57;;;3.75;;
24559;SDS011;12727;49.934;8.656;2023-07-28T00:50:14;5.78;;;3.97;;
24559;SDS011;12727;49.934;8.656;2023-07-28T00:52:39;6.97;;;3.83;;
24559;SDS011;12727;49.934;8.656;2023-07-28T00:55:05;6.28;;;3.67;;
24559;SDS011;12727;49.934;8.656;2023-07-28T00:57:32;5.80;;;3.83;;
24559;SDS011;12727;49.934;8.656;2023-07-28T01:00:00;5.78;;;3.72;;
24559;SDS011;12727;49.934;8.656;2023-07-28T01:02:26;6.45;;;3.70;;
24559;SDS011;12727;49.934;8.656;2023-07-28T01:04:52;5.90;;;3.90;;
24559;SDS011;12727;49.934;8.656;2023-07-28T01:07:27;4.75;;;3.53;;
24559;SDS011;12727;49.934;8.656;2023-07-28T01:09:57;5.93;;;4.13;;
24559;SDS011;12727;49.934;8.656;2023-07-28T01:12:37;6.07;;;4.00;;
24559;SDS011;12727;49.934;8.656;2023-07-28T01:15:03;5.53;;;3.97;;
24559;SDS011;12727;49.934;8.656;2023-07-28T01:17:29;4.40;;;3.53;;
24559;SDS011;12727;49.934;8.656;2023-07-28T01:19:55;6.65;;;3.90;;
24559;SDS011;12727;49.934;8.656;2023-07-28T01:25:16;5.82;;;3.70;;
24559;SDS011;12727;49.934;8.656;2023-07-28T01:27:43;4.68;;;3.95;;
24559;SDS011;12727;49.934;8.656;2023-07-28T01:30:10;4.97;;;3.80;;
24559;SDS011;12727;49.934;8.656;2023-07-28T01:32:36;4.45;;;3.85;;
24559;SDS011;12727;49.934;8.656;2023-07-28T01:35:02;5.20;;;3.92;;
24559;SDS011;12727;49.934;8.656;2023-07-28T01:37:28;6.43;;;3.85;;
24559;SDS011;12727;49.934;8.656;2023-07-28T01:39:54;8.55;;;4.13;;
24559;SDS011;12727;49.934;8.656;2023-07-28T01:42:20;5.63;;;3.78;;
24559;SDS011;12727;49.934;8.656;2023-07-28T01:44:45;7.45;;;4.03;;
24559;SDS011;12727;49.934;8.656;2023-07-28T01:47:11;6.22;;;3.55;;
24559;SDS011;12727;49.934;8.656;2023-07-28T01:49:36;4.75;;;3.60;;
24559;SDS011;12727;49.934;8.656;2023-07-28T01:52:02;5.30;;;3.20;;
24559;SDS011;12727;49.934;8.656;2023-07-28T01:54:28;4.55;;;3.10;;
24559;SDS011;12727;49.934;8.656;2023-07-28T01:56:53;5.80;;;3.78;;
24559;SDS011;12727;49.934;8.656;2023-07-28T01:59:19;5.68;;;3.50;;
24559;SDS011;12727;49.934;8.656;2023-07-28T02:01:45;4.88;;;3.60;;
24559;SDS011;12727;49.934;8.656;2023-07-28T02:04:11;5.72;;;3.95;;
24559;SDS011;12727;49.934;8.656;2023-07-28T02:06:37;7.20;;;3.33;;
24559;SDS011;12727;49.934;8.656;2023-07-28T02:09:03;3.80;;;3.20;;
24559;SDS011;12727;49.934;8.656;2023-07-28T02:11:28;6.95;;;4.10;;
24559;SDS011;12727;49.934;8.656;2023-07-28T02:13:54;6.72;;;3.75;;
24559;SDS011;12727;49.934;8.656;2023-07-28T02:16:20;4.93;;;4.03;;
24559;SDS011;12727;49.934;8.656;2023-07-28T02:18:45;5.05;;;4.50;;
24559;SDS011;12727;49.934;8.656;2023-07-28T02:21:11;7.20;;;4.28;;
24559;SDS011;12727;49.934;8.656;2023-07-28T02:23:36;7.05;;;4.13;;
24559;SDS011;12727;49.934;8.656;2023-07-28T02:26:02;5.25;;;4.10;;
24559;SDS011;12727;49.934;8.656;2023-07-28T02:28:27;5.03;;;4.40;;
24559;SDS011;12727;49.934;8.656;2023-07-28T02:30:53;5.28;;;3.60;;
24559;SDS011;12727;49.934;8.656;2023-07-28T02:33:18;4.70;;;3.58;;
24559;SDS011;12727;49.934;8.656;2023-07-28T02:35:44;5.40;;;3.85;;
24559;SDS011;12727;49.934;8.656;2023-07-28T02:38:09;5.05;;;3.88;;
24559;SDS011;12727;49.934;8.656;2023-07-28T02:40:35;6.18;;;3.08;;
24559;SDS011;12727;49.934;8.656;2023-07-28T02:43:00;7.13;;;3.47;;
24559;SDS011;12727;49.934;8.656;2023-07-28T02:45:26;3.83;;;3.30;;
24559;SDS011;12727;49.934;8.656;2023-07-28T02:47:52;4.70;;;3.50;;
24559;SDS011;12727;49.934;8.656;2023-07-28T02:50:17;5.25;;;3.45;;
24559;SDS011;12727;49.934;8.656;2023-07-28T02:52:43;5.40;;;3.95;;
24559;SDS011;12727;49.934;8.656;2023-07-28T02:55:08;7.75;;;3.80;;
24559;SDS011;12727;49.934;8.656;2023-07-28T02:57:34;4.80;;;4.05;;
24559;SDS011;12727;49.934;8.656;2023-07-28T03:00:00;5.00;;;3.72;;
24559;SDS011;12727;49.934;8.656;2023-07-28T03:02:25;6.28;;;3.92;;
24559;SDS011;12727;49.934;8.656;2023-07-28T03:04:51;6.03;;;4.63;;
24559;SDS011;12727;49.934;8.656;2023-07-28T03:07:17;6.45;;;4.35;;
24559;SDS011;12727;49.934;8.656;2023-07-28T03:09:42;7.47;;;5.03;;
24559;SDS011;12727;49.934;8.656;2023-07-28T03:12:08;5.97;;;4.47;;
24559;SDS011;12727;49.934;8.656;2023-07-28T03:14:34;8.02;;;4.90;;
24559;SDS011;12727;49.934;8.656;2023-07-28T03:16:59;8.93;;;4.78;;
24559;SDS011;12727;49.934;8.656;2023-07-28T03:19:25;7.18;;;4.80;;
24559;SDS011;12727;49.934;8.656;2023-07-28T03:21:51;6.80;;;4.88;;
24559;SDS011;12727;49.934;8.656;2023-07-28T03:24:16;6.70;;;5.00;;
24559;SDS011;12727;49.934;8.656;2023-07-28T03:26:42;7.55;;;5.55;;
24559;SDS011;12727;49.934;8.656;2023-07-28T03:29:07;9.93;;;5.03;;
24559;SDS011;12727;49.934;8.656;2023-07-28T03:31:33;7.57;;;4.78;;
24559;SDS011;12727;49.934;8.656;2023-07-28T03:34:00;7.72;;;4.75;;
24559;SDS011;12727;49.934;8.656;2023-07-28T03:36:27;7.30;;;5.68;;
24559;SDS011;12727;49.934;8.656;2023-07-28T03:38:53;8.27;;;5.22;;
24559;SDS011;12727;49.934;8.656;2023-07-28T03:41:18;7.30;;;4.90;;
24559;SDS011;12727;49.934;8.656;2023-07-28T03:43:44;7.05;;;5.10;;
24559;SDS011;12727;49.934;8.656;2023-07-28T03:46:10;7.07;;;4.93;;
24559;SDS011;12727;49.934;8.656;2023-07-28T03:48:36;7.57;;;5.13;;
24559;SDS011;12727;49.934;8.656;2023-07-28T03:51:02;6.30;;;4.28;;
24559;SDS011;12727;49.934;8.656;2023-07-28T03:53:27;6.93;;;4.57;;
24559;SDS011;12727;49.934;8.656;2023-07-28T03:55:53;7.85;;;4.93;;
24559;SDS011;12727;49.934;8.656;2023-07-28T03:58:22;8.18;;;4.53;;
24559;SDS011;12727;49.934;8.656;2023-07-28T04:00:51;7.50;;;4.60;;
24559;SDS011;12727;49.934;8.656;2023-07-28T04:03:20;6.25;;;3.85;;
24559;SDS011;12727;49.934;8.656;2023-07-28T04:05:46;5.20;;;3.58;;
24559;SDS011;12727;49.934;8.656;2023-07-28T04:08:12;6.38;;;3.85;;
24559;SDS011;12727;49.934;8.656;2023-07-28T04:10:37;4.97;;;3.78;;
24559;SDS011;12727;49.934;8.656;2023-07-28T04:13:03;6.38;;;3.90;;
24559;SDS011;12727;49.934;8.656;2023-07-28T04:15:28;4.63;;;3.15;;
24559;SDS011;12727;49.934;8.656;2023-07-28T04:17:54;4.22;;;3.25;;
24559;SDS011;12727;49.934;8.656;2023-07-28T04:20:19;6.50;;;3.70;;
24559;SDS011;12727;49.934;8.656;2023-07-28T04:22:45;4.38;;;3.33;;
24559;SDS011;12727;49.934;8.656;2023-07-28T04:25:11;6.70;;;3.75;;
24559;SDS011;12727;49.934;8.656;2023-07-28T04:27:37;3.90;;;3.20;;
24559;SDS011;12727;49.934;8.656;2023-07-28T04:30:02;5.38;;;3.10;;
24559;SDS011;12727;49.934;8.656;2023-07-28T04:32:28;4.88;;;3.63;;
24559;SDS011;12727;49.934;8.656;2023-07-28T04:34:54;6.82;;;3.53;;
24559;SDS011;12727;49.934;8.656;2023-07-28T04:37:19;4.30;;;3.83;;
24559;SDS011;12727;49.934;8.656;2023-07-28T04:39:45;4.53;;;3.40;;
24559;SDS011;12727;49.934;8.656;2023-07-28T04:42:10;4.47;;;3.85;;
24559;SDS011;12727;49.934;8.656;2023-07-28T04:44:37;4.47;;;3.30;;
24559;SDS011;12727;49.934;8.656;2023-07-28T04:47:04;4.47;;;3.45;;
24559;SDS011;12727;49.934;8.656;2023-07-28T04:49:30;4.32;;;3.40;;
24559;SDS011;12727;49.934;8.656;2023-07-28T04:51:56;4.97;;;3.40;;
24559;SDS011;12727;49.934;8.656;2023-07-28T04:54:21;6.22;;;3.40;;
24559;SDS011;12727;49.934;8.656;2023-07-28T04:56:47;6.63;;;3.78;;
24559;SDS011;12727;49.934;8.656;2023-07-28T04:59:15;5.00;;;3.67;;
24559;SDS011;12727;49.934;8.656;2023-07-28T05:01:41;4.50;;;3.47;;
24559;SDS011;12727;49.934;8.656;2023-07-28T05:04:06;3.40;;;2.85;;
24559;SDS011;12727;49.934;8.656;2023-07-28T05:06:32;7.50;;;3.25;;
24559;SDS011;12727;49.934;8.656;2023-07-28T05:08:57;3.53;;;3.20;;
24559;SDS011;12727;49.934;8.656;2023-07-28T05:11:23;5.68;;;2.90;;
24559;SDS011;12727;49.934;8.656;2023-07-28T05:13:48;4.10;;;3.03;;
24559;SDS011;12727;49.934;8.656;2023-07-28T05:16:14;5.47;;;3.17;;
24559;SDS011;12727;49.934;8.656;2023-07-28T05:18:40;3.60;;;2.97;;
24559;SDS011;12727;49.934;8.656;2023-07-28T05:21:08;3.67;;;2.95;;
24559;SDS011;12727;49.934;8.656;2023-07-28T05:23:33;3.97;;;3.08;;
24559;SDS011;12727;49.934;8.656;2023-07-28T05:25:59;3.65;;;2.97;;
24559;SDS011;12727;49.934;8.656;2023-07-28T05:28:25;4.30;;;2.97;;
24559;SDS011;12727;49.934;8.656;2023-07-28T05:30:50;4.28;;;3.10;;
24559;SDS011;12727;49.934;8.656;2023-07-28T05:33:16;3.03;;;2.53;;
24559;SDS011;12727;49.934;8.656;2023-07-28T05:35:41;3.03;;;2.70;;
24559;SDS011;12727;49.934;8.656;2023-07-28T05:38:07;3.80;;;2.78;;
24559;SDS011;12727;49.934;8.656;2023-07-28T05:40:33;5.28;;;2.47;;
24559;SDS011;12727;49.934;8.656;2023-07-28T05:42:58;3.88;;;2.75;;
24559;SDS011;12727;49.934;8.656;2023-07-28T05:45:24;3.85;;;2.60;;
24559;SDS011;12727;49.934;8.656;2023-07-28T05:47:49;3.33;;;2.53;;
24559;SDS011;12727;49.934;8.656;2023-07-28T05:50:15;3.63;;;2.80;;
24559;SDS011;12727;49.934;8.656;2023-07-28T05:52:41;3.72;;;2.78;;
24559;SDS011;12727;49.934;8.656;2023-07-28T05:55:06;4.13;;;2.35;;
24559;SDS011;12727;49.934;8.656;2023-07-28T05:57:32;3.17;;;2.50;;
24559;SDS011;12727;49.934;8.656;2023-07-28T05:59:58;5.88;;;2.83;;
24559;SDS011;12727;49.934;8.656;2023-07-28T06:02:23;3.78;;;2.50;;
24559;SDS011;12727;49.934;8.656;2023-07-28T06:04:49;3.45;;;2.47;;
24559;SDS011;12727;49.934;8.656;2023-07-28T06:07:15;4.93;;;2.90;;
24559;SDS011;12727;49.934;8.656;2023-07-28T06:09:40;4.57;;;2.40;;
24559;SDS011;12727;49.934;8.656;2023-07-28T06:12:06;3.80;;;2.50;;
24559;SDS011;12727;49.934;8.656;2023-07-28T06:14:32;3.00;;;2.53;;
24559;SDS011;12727;49.934;8.656;2023-07-28T06:16:57;3.15;;;2.03;;
24559;SDS011;12727;49.934;8.656;2023-07-28T06:19:23;3.95;;;2.40;;
24559;SDS011;12727;49.934;8.656;2023-07-28T06:21:52;4.65;;;2.47;;
24559;SDS011;12727;49.934;8.656;2023-07-28T06:24:18;3.58;;;2.28;;
24559;SDS011;12727;49.934;8.656;2023-07-28T06:26:44;2.17;;;1.95;;
24559;SDS011;12727;49.934;8.656;2023-07-28T06:29:09;3.13;;;2.20;;
24559;SDS011;12727;49.934;8.656;2023-07-28T06:31:35;2.53;;;2.03;;
24559;SDS011;12727;49.934;8.656;2023-07-28T06:34:01;3.50;;;2.20;;
24559;SDS011;12727;49.934;8.656;2023-07-28T06:36:26;4.68;;;2.20;;
24559;SDS011;12727;49.934;8.656;2023-07-28T06:38:52;2.58;;;1.80;;
24559;SDS011;12727;49.934;8.656;2023-07-28T06:41:20;4.68;;;2.17;;
24559;SDS011;12727;49.934;8.656;2023-07-28T06:43:49;3.28;;;1.63;;
24559;SDS011;12727;49.934;8.656;2023-07-28T06:46:14;3.42;;;1.80;;
24559;SDS011;12727;49.934;8.656;2023-07-28T06:48:40;5.85;;;1.60;;
24559;SDS011;12727;49.934;8.656;2023-07-28T06:51:05;2.28;;;1.75;;
24559;SDS011;12727;49.934;8.656;2023-07-28T06:53:31;3.25;;;1.77;;
24559;SDS011;12727;49.934;8.656;2023-07-28T06:55:57;2.88;;;1.88;;
24559;SDS011;12727;49.934;8.656;2023-07-28T06:58:22;4.47;;;1.90;;
24559;SDS011;12727;49.934;8.656;2023-07-28T07:00:48;2.92;;;2.05;;
24559;SDS011;12727;49.934;8.656;2023-07-28T07:03:14;2.35;;;1.80;;
24559;SDS011;12727;49.934;8.656;2023-07-28T07:05:39;4.20;;;1.58;;
24559;SDS011;12727;49.934;8.656;2023-07-28T07:08:05;1.77;;;1.48;;
24559;SDS011;12727;49.934;8.656;2023-07-28T07:10:31;2.53;;;1.70;;
24559;SDS011;12727;49.934;8.656;2023-07-28T07:12:56;1.95;;;1.67;;
24559;SDS011;12727;49.934;8.656;2023-07-28T07:15:22;2.53;;;1.30;;
24559;SDS011;12727;49.934;8.656;2023-07-28T07:17:47;2.17;;;1.23;;
24559;SDS011;12727;49.934;8.656;2023-07-28T07:20:13;2.13;;;1.00;;
24559;SDS011;12727;49.934;8.656;2023-07-28T07:22:40;1.60;;;1.50;;
24559;SDS011;12727;49.934;8.656;2023-07-28T07:25:06;1.00;;;0.88;;
24559;SDS011;12727;49.934;8.656;2023-07-28T07:27:32;1.15;;;0.82;;
24559;SDS011;12727;49.934;8.656;2023-07-28T07:29:58;1.00;;;0.90;;
24559;SDS011;12727;49.934;8.656;2023-07-28T07:32:24;2.72;;;0.90;;
24559;SDS011;12727;49.934;8.656;2023-07-28T07:34:49;2.17;;;1.00;;
24559;SDS011;12727;49.934;8.656;2023-07-28T07:37:15;2.10;;;0.90;;
24559;SDS011;12727;49.934;8.656;2023-07-28T07:39:41;2.53;;;1.00;;
24559;SDS011;12727;49.934;8.656;2023-07-28T07:42:09;1.35;;;1.02;;
24559;SDS011;12727;49.934;8.656;2023-07-28T07:44:36;1.70;;;0.82;;
24559;SDS011;12727;49.934;8.656;2023-07-28T07:47:02;1.20;;;0.80;;
24559;SDS011;12727;49.934;8.656;2023-07-28T07:49:38;1.20;;;0.77;;
24559;SDS011;12727;49.934;8.656;2023-07-28T07:52:03;1.52;;;1.00;;
24559;SDS011;12727;49.934;8.656;2023-07-28T07:54:31;1.63;;;1.00;;
24559;SDS011;12727;49.934;8.656;2023-07-28T07:56:57;1.30;;;0.90;;
24559;SDS011;12727;49.934;8.656;2023-07-28T07:59:22;0.93;;;0.63;;
24559;SDS011;12727;49.934;8.656;2023-07-28T08:01:52;3.22;;;0.90;;
24559;SDS011;12727;49.934;8.656;2023-07-28T08:04:18;1.98;;;0.90;;
24559;SDS011;12727;49.934;8.656;2023-07-28T08:06:43;1.05;;;0.95;;
24559;SDS011;12727;49.934;8.656;2023-07-28T08:09:09;1.33;;;1.23;;
24559;SDS011;12727;49.934;8.656;2023-07-28T08:11:35;3.28;;;1.00;;
24559;SDS011;12727;49.934;8.656;2023-07-28T08:14:00;1.65;;;1.05;;
24559;SDS011;12727;49.934;8.656;2023-07-28T08:16:26;1.55;;;0.90;;
24559;SDS011;12727;49.934;8.656;2023-07-28T08:18:51;2.70;;;1.10;;
24559;SDS011;12727;49.934;8.656;2023-07-28T08:21:17;2.65;;;1.15;;
24559;SDS011;12727;49.934;8.656;2023-07-28T08:23:43;2.40;;;1.35;;
24559;SDS011;12727;49.934;8.656;2023-07-28T08:26:09;1.20;;;1.00;;
24559;SDS011;12727;49.934;8.656;2023-07-28T08:28:34;1.45;;;1.02;;
24559;SDS011;12727;49.934;8.656;2023-07-28T08:31:00;1.58;;;0.93;;
24559;SDS011;12727;49.934;8.656;2023-07-28T08:33:26;1.95;;;1.00;;
24559;SDS011;12727;49.934;8.656;2023-07-28T08:35:52;1.73;;;1.10;;
24559;SDS011;12727;49.934;8.656;2023-07-28T08:38:17;1.55;;;1.20;;
24559;SDS011;12727;49.934;8.656;2023-07-28T08:40:43;0.98;;;0.90;;
24559;SDS011;12727;49.934;8.656;2023-07-28T08:43:10;1.50;;;1.00;;
24559;SDS011;12727;49.934;8.656;2023-07-28T08:45:36;1.92;;;1.00;;
24559;SDS011;12727;49.934;8.656;2023-07-28T08:48:02;1.08;;;0.98;;
24559;SDS011;12727;49.934;8.656;2023-07-28T08:50:27;3.10;;;1.00;;
24559;SDS011;12727;49.934;8.656;2023-07-28T08:52:55;0.90;;;0.65;;
24559;SDS011;12727;49.934;8.656;2023-07-28T08:55:21;1.30;;;0.57;;
24559;SDS011;12727;49.934;8.656;2023-07-28T08:57:48;1.35;;;0.80;;
24559;SDS011;12727;49.934;8.656;2023-07-28T09:00:14;0.82;;;0.75;;
24559;SDS011;12727;49.934;8.656;2023-07-28T09:02:41;1.10;;;1.00;;
24559;SDS011;12727;49.934;8.656;2023-07-28T09:05:08;2.45;;;1.10;;
24559;SDS011;12727;49.934;8.656;2023-07-28T09:07:43;1.40;;;0.90;;
24559;SDS011;12727;49.934;8.656;2023-07-28T09:10:09;1.38;;;0.70;;
24559;SDS011;12727;49.934;8.656;2023-07-28T09:12:35;1.75;;;0.90;;
24559;SDS011;12727;49.934;8.656;2023-07-28T09:15:10;0.68;;;0.60;;
24559;SDS011;12727;49.934;8.656;2023-07-28T09:17:42;2.28;;;0.73;;
24559;SDS011;12727;49.934;8.656;2023-07-28T09:20:09;1.25;;;0.73;;
24559;SDS011;12727;49.934;8.656;2023-07-28T09:22:38;1.38;;;0.68;;
24559;SDS011;12727;49.934;8.656;2023-07-28T09:25:22;2.55;;;0.70;;
24559;SDS011;12727;49.934;8.656;2023-07-28T09:27:49;1.40;;;0.70;;
24559;SDS011;12727;49.934;8.656;2023-07-28T09:30:16;1.02;;;0.88;;
24559;SDS011;12727;49.934;8.656;2023-07-28T09:32:43;2.95;;;0.82;;
24559;SDS011;12727;49.934;8.656;2023-07-28T09:35:14;0.98;;;0.77;;
24559;SDS011;12727;49.934;8.656;2023-07-28T09:37:41;0.90;;;0.63;;
24559;SDS011;12727;49.934;8.656;2023-07-28T09:40:10;1.08;;;0.60;;
24559;SDS011;12727;49.934;8.656;2023-07-28T09:42:42;0.60;;;0.50;;
24559;SDS011;12727;49.934;8.656;2023-07-28T09:45:10;1.77;;;0.65;;
24559;SDS011;12727;49.934;8.656;2023-07-28T09:47:37;2.40;;;0.60;;
24559;SDS011;12727;49.934;8.656;2023-07-28T09:50:04;1.10;;;0.82;;
24559;SDS011;12727;49.934;8.656;2023-07-28T09:52:35;1.60;;;1.00;;
24559;SDS011;12727;49.934;8.656;2023-07-28T09:55:06;2.95;;;1.13;;
24559;SDS011;12727;49.934;8.656;2023-07-28T09:57:36;2.03;;;0.95;;
24559;SDS011;12727;49.934;8.656;2023-07-28T10:00:06;3.42;;;1.13;;
24559;SDS011;12727;49.934;8.656;2023-07-28T10:02:35;1.35;;;0.80;;
24559;SDS011;12727;49.934;8.656;2023-07-28T10:05:01;2.05;;;0.90;;
24559;SDS011;12727;49.934;8.656;2023-07-28T10:07:27;1.63;;;0.90;;
24559;SDS011;12727;49.934;8.656;2023-07-28T10:09:53;3.03;;;1.02;;
24559;SDS011;12727;49.934;8.656;2023-07-28T10:12:26;3.28;;;1.20;;
24559;SDS011;12727;49.934;8.656;2023-07-28T10:15:01;1.48;;;0.80;;
24559;SDS011;12727;49.934;8.656;2023-07-28T10:17:32;1.35;;;0.88;;
24559;SDS011;12727;49.934;8.656;2023-07-28T10:20:00;2.53;;;1.00;;
24559;SDS011;12727;49.934;8.656;2023-07-28T10:22:34;1.58;;;1.08;;
24559;SDS011;12727;49.934;8.656;2023-07-28T10:25:09;1.30;;;1.13;;
24559;SDS011;12727;49.934;8.656;2023-07-28T10:27:40;2.95;;;1.23;;
24559;SDS011;12727;49.934;8.656;2023-07-28T10:30:11;2.10;;;1.45;;
24559;SDS011;12727;49.934;8.656;2023-07-28T10:32:38;1.35;;;1.13;;
24559;SDS011;12727;49.934;8.656;2023-07-28T10:35:06;1.40;;;1.00;;
24559;SDS011;12727;49.934;8.656;2023-07-28T10:37:33;1.27;;;0.98;;
24559;SDS011;12727;49.934;8.656;2023-07-28T10:43:00;1.50;;;1.00;;
24559;SDS011;12727;49.934;8.656;2023-07-28T10:45:28;1.35;;;1.05;;
24559;SDS011;12727;49.934;8.656;2023-07-28T10:47:55;1.58;;;1.27;;
24559;SDS011;12727;49.934;8.656;2023-07-28T10:50:22;1.85;;;1.40;;
24559;SDS011;12727;49.934;8.656;2023-07-28T10:52:48;2.85;;;1.80;;
24559;SDS011;12727;49.934;8.656;2023-07-28T10:55:15;2.67;;;1.90;;
24559;SDS011;12727;49.934;8.656;2023-07-28T10:57:42;3.97;;;1.92;;
24559;SDS011;12727;49.934;8.656;2023-07-28T11:00:10;3.67;;;1.92;;
24559;SDS011;12727;49.934;8.656;2023-07-28T11:02:52;2.25;;;1.75;;
24559;SDS011;12727;49.934;8.656;2023-07-28T11:05:23;1.95;;;1.75;;
24559;SDS011;12727;49.934;8.656;2023-07-28T11:07:51;2.38;;;1.83;;
24559;SDS011;12727;49.934;8.656;2023-07-28T11:10:20;2.20;;;1.77;;
24559;SDS011;12727;49.934;8.656;2023-07-28T11:12:46;2.72;;;1.80;;
24559;SDS011;12727;49.934;8.656;2023-07-28T11:15:14;2.30;;;2.05;;
24559;SDS011;12727;49.934;8.656;2023-07-28T11:17:43;3.22;;;2.15;;
24559;SDS011;12727;49.934;8.656;2023-07-28T11:20:17;2.78;;;2.45;;
24559;SDS011;12727;49.934;8.656;2023-07-28T11:22:58;3.42;;;2.03;;
24559;SDS011;12727;49.934;8.656;2023-07-28T11:25:25;4.10;;;2.05;;
24559;SDS011;12727;49.934;8.656;2023-07-28T11:27:53;2.15;;;1.90;;
24559;SDS011;12727;49.934;8.656;2023-07-28T11:30:20;2.50;;;2.00;;
24559;SDS011;12727;49.934;8.656;2023-07-28T11:32:48;3.53;;;2.08;;
24559;SDS011;12727;49.934;8.656;2023-07-28T11:35:18;2.25;;;1.80;;
24559;SDS011;12727;49.934;8.656;2023-07-28T11:37:48;2.53;;;1.80;;
24559;SDS011;12727;49.934;8.656;2023-07-28T11:40:16;2.85;;;1.20;;
24559;SDS011;12727;49.934;8.656;2023-07-28T11:42:45;2.80;;;1.13;;
24559;SDS011;12727;49.934;8.656;2023-07-28T11:45:18;1.38;;;1.15;;
24559;SDS011;12727;49.934;8.656;2023-07-28T11:48:17;1.95;;;1.20;;
24559;SDS011;12727;49.934;8.656;2023-07-28T11:50:39;2.58;;;1.40;;
24559;SDS011;12727;49.934;8.656;2023-07-28T11:53:06;1.80;;;1.25;;
24559;SDS011;12727;49.934;8.656;2023-07-28T11:55:33;2.30;;;1.27;;
24559;SDS011;12727;49.934;8.656;2023-07-28T11:58:01;2.40;;;1.40;;
24559;SDS011;12727;49.934;8.656;2023-07-28T12:00:33;2.00;;;1.30;;
24559;SDS011;12727;49.934;8.656;2023-07-28T12:03:00;3.42;;;1.42;;
24559;SDS011;12727;49.934;8.656;2023-07-28T12:05:37;2.22;;;1.30;;
24559;SDS011;12727;49.934;8.656;2023-07-28T12:08:04;4.38;;;1.25;;
24559;SDS011;12727;49.934;8.656;2023-07-28T12:10:30;1.30;;;1.17;;
24559;SDS011;12727;49.934;8.656;2023-07-28T12:12:57;3.67;;;1.42;;
24559;SDS011;12727;49.934;8.656;2023-07-28T12:15:29;1.73;;;1.25;;
24559;SDS011;12727;49.934;8.656;2023-07-28T12:18:03;4.57;;;1.45;;
24559;SDS011;12727;49.934;8.656;2023-07-28T12:20:49;2.38;;;1.27;;
24559;SDS011;12727;49.934;8.656;2023-07-28T12:23:19;2.05;;;1.42;;
24559;SDS011;12727;49.934;8.656;2023-07-28T12:25:45;1.60;;;1.10;;
24559;SDS011;12727;49.934;8.656;2023-07-28T12:28:12;1.42;;;1.20;;
24559;SDS011;12727;49.934;8.656;2023-07-28T12:30:38;1.48;;;1.10;;
24559;SDS011;12727;49.934;8.656;2023-07-28T12:33:04;1.92;;;1.13;;
24559;SDS011;12727;49.934;8.656;2023-07-28T12:35:31;2.58;;;1.13;;
24559;SDS011;12727;49.934;8.656;2023-07-28T12:37:59;1.63;;;1.10;;
24559;SDS011;12727;49.934;8.656;2023-07-28T12:40:26;1.70;;;1.30;;
24559;SDS011;12727;49.934;8.656;2023-07-28T12:42:54;1.42;;;1.20;;
24559;SDS011;12727;49.934;8.656;2023-07-28T12:45:20;1.77;;;1.13;;
24559;SDS011;12727;49.934;8.656;2023-07-28T12:47:46;1.45;;;1.10;;
24559;SDS011;12727;49.934;8.656;2023-07-28T12:50:12;2.10;;;1.20;;
24559;SDS011;12727;49.934;8.656;2023-07-28T12:52:38;1.90;;;1.05;;
24559;SDS011;12727;49.934;8.656;2023-07-28T12:55:04;2.50;;;1.17;;
24559;SDS011;12727;49.934;8.656;2023-07-28T12:57:30;2.45;;;1.00;;
24559;SDS011;12727;49.934;8.656;2023-07-28T12:59:57;1.67;;;1.10;;
24559;SDS011;12727;49.934;8.656;2023-07-28T13:02:23;1.88;;;1.00;;
24559;SDS011;12727;49.934;8.656;2023-07-28T13:04:49;0.80;;;0.80;;
24559;SDS011;12727;49.934;8.656;2023-07-28T13:07:14;1.48;;;1.02;;
24559;SDS011;12727;49.934;8.656;2023-07-28T13:09:40;3.42;;;1.25;;
24559;SDS011;12727;49.934;8.656;2023-07-28T13:12:07;2.33;;;1.10;;
24559;SDS011;12727;49.934;8.656;2023-07-28T13:14:33;2.58;;;1.50;;
24559;SDS011;12727;49.934;8.656;2023-07-28T13:16:59;2.28;;;1.55;;
24559;SDS011;12727;49.934;8.656;2023-07-28T13:19:25;2.90;;;1.42;;
24559;SDS011;12727;49.934;8.656;2023-07-28T13:21:50;2.33;;;1.42;;
24559;SDS011;12727;49.934;8.656;2023-07-28T13:24:16;1.90;;;1.27;;
24559;SDS011;12727;49.934;8.656;2023-07-28T13:26:42;1.38;;;1.00;;
24559;SDS011;12727;49.934;8.656;2023-07-28T13:29:07;1.08;;;0.80;;
24559;SDS011;12727;49.934;8.656;2023-07-28T13:31:33;1.60;;;0.80;;
24559;SDS011;12727;49.934;8.656;2023-07-28T13:33:59;1.73;;;1.00;;
24559;SDS011;12727;49.934;8.656;2023-07-28T13:36:24;1.73;;;1.00;;
24559;SDS011;12727;49.934;8.656;2023-07-28T13:38:50;1.00;;;0.90;;
24559;SDS011;12727;49.934;8.656;2023-07-28T13:41:16;2.42;;;1.00;;
24559;SDS011;12727;49.934;8.656;2023-07-28T13:43:41;1.02;;;0.93;;
24559;SDS011;12727;49.934;8.656;2023-07-28T13:46:07;2.08;;;0.90;;
24559;SDS011;12727;49.934;8.656;2023-07-28T13:48:33;1.30;;;1.08;;
24559;SDS011;12727;49.934;8.656;2023-07-28T13:51:01;1.70;;;1.30;;
24559;SDS011;12727;49.934;8.656;2023-07-28T13:53:27;2.38;;;1.20;;
24559;SDS011;12727;49.934;8.656;2023-07-28T13:55:53;1.67;;;1.10;;
24559;SDS011;12727;49.934;8.656;2023-07-28T13:58:19;1.60;;;1.25;;
24559;SDS011;12727;49.934;8.656;2023-07-28T14:00:44;1.40;;;1.20;;
24559;SDS011;12727;49.934;8.656;2023-07-28T14:03:10;1.60;;;1.15;;
24559;SDS011;12727;49.934;8.656;2023-07-28T14:05:36;1.42;;;1.20;;
24559;SDS011;12727;49.934;8.656;2023-07-28T14:08:02;2.58;;;1.50;;
24559;SDS011;12727;49.934;8.656;2023-07-28T14:10:27;1.27;;;1.05;;
24559;SDS011;12727;49.934;8.656;2023-07-28T14:12:53;2.03;;;1.08;;
24559;SDS011;12727;49.934;8.656;2023-07-28T14:15:19;1.58;;;1.10;;
24559;SDS011;12727;49.934;8.656;2023-07-28T14:17:44;1.88;;;0.93;;
24559;SDS011;12727;49.934;8.656;2023-07-28T14:20:10;2.38;;;1.17;;
24559;SDS011;12727;49.934;8.656;2023-07-28T14:22:36;1.90;;;1.20;;
24559;SDS011;12727;49.934;8.656;2023-07-28T14:25:02;3.83;;;1.38;;
24559;SDS011;12727;49.934;8.656;2023-07-28T14:27:28;1.20;;;1.10;;
24559;SDS011;12727;49.934;8.656;2023-07-28T14:29:54;1.90;;;1.40;;
24559;SDS011;12727;49.934;8.656;2023-07-28T14:32:19;3.15;;;1.30;;
24559;SDS011;12727;49.934;8.656;2023-07-28T14:34:45;2.72;;;1.38;;
24559;SDS011;12727;49.934;8.656;2023-07-28T14:37:10;2.58;;;1.38;;
24559;SDS011;12727;49.934;8.656;2023-07-28T14:39:36;1.63;;;1.20;;
24559;SDS011;12727;49.934;8.656;2023-07-28T14:42:02;1.40;;;1.30;;
24559;SDS011;12727;49.934;8.656;2023-07-28T14:44:28;2.45;;;1.38;;
24559;SDS011;12727;49.934;8.656;2023-07-28T14:46:54;1.92;;;1.35;;
24559;SDS011;12727;49.934;8.656;2023-07-28T14:49:20;1.30;;;1.13;;
24559;SDS011;12727;49.934;8.656;2023-07-28T14:51:45;1.13;;;0.90;;